Time;durP1;ratioP1;P1;durP2;ratioP2;P2;SDS_P1;SDS_P2;PMS_P1;PMS_P2;Temp;Humidity;BMP_temperature;BMP_pressure;BME280_temperature;BME280_humidity;BME280_pressure;Samples;Min_cycle;Max_cycle;Signal;HPM_P1;HPM_P2
2022/08/01 00:01:02;;;;;;;27.67;11.82;;;;;;;17.38;100.00;101487.22;10453883;28;20126;-80
2022/08/01 00:06:03;;;;;;;25.73;11.20;;;;;;;17.39;100.00;101488.88;10454539;28;20037;-81
2022/08/01 00:11:03;;;;;;;21.73;9.93;;;;;;;17.37;100.00;101482.78;10452573;28;20200;-79
2022/08/01 00:16:04;;;;;;;20.15;9.10;;;;;;;17.33;100.00;101490.84;10456447;28;20116;-79
2022/08/01 00:21:04;;;;;;;18.98;8.35;;;;;;;17.26;100.00;101487.53;10453432;28;20480;-80
2022/08/01 00:26:04;;;;;;;17.00;9.00;;;;;;;17.23;100.00;101490.91;10444807;28;20051;-80
2022/08/01 00:31:05;;;;;;;18.70;10.07;;;;;;;17.22;100.00;101495.63;10444818;28;20041;-80
2022/08/01 00:36:06;;;;;;;28.75;11.45;;;;;;;17.24;100.00;101504.53;10444801;28;20059;-79
2022/08/01 00:41:06;;;;;;;22.98;11.73;;;;;;;17.27;100.00;101503.13;10444839;28;20043;-80
2022/08/01 00:46:06;;;;;;;29.23;11.45;;;;;;;16.99;100.00;101447.03;10460866;28;20063;-80
2022/08/01 00:51:07;;;;;;;27.05;11.63;;;;;;;17.28;100.00;101508.41;10443494;28;20048;-79
2022/08/01 00:56:07;;;;;;;11.20;6.93;;;;;;;17.25;100.00;101522.06;10443673;28;20071;-79
2022/08/01 01:01:08;;;;;;;15.55;7.45;;;;;;;17.21;100.00;101512.59;10443181;28;20045;-80
2022/08/01 01:06:31;;;;;;;11.05;6.65;;;;;;;17.20;100.00;101510.94;10443457;28;20025;-79
2022/08/01 01:11:54;;;;;;;17.85;7.63;;;;;;;17.12;100.00;101510.41;10461271;28;20109;-80
2022/08/01 01:16:54;;;;;;;13.65;7.13;;;;;;;17.10;100.00;101509.84;10462755;28;20079;-78
2022/08/01 01:22:08;;;;;;;12.55;6.65;;;;;;;17.03;100.00;101520.47;10478105;28;20048;-80
2022/08/01 01:27:31;;;;;;;13.75;7.25;;;;;;;17.01;100.00;101510.72;10448726;28;20481;-79
2022/08/01 01:32:33;;;;;;;10.38;6.90;;;;;;;16.90;100.00;101510.72;10450162;28;20067;-78
2022/08/01 01:37:34;;;;;;;9.32;6.05;;;;;;;16.93;100.00;101521.31;10459228;28;20208;-79
2022/08/01 01:42:35;;;;;;;12.57;6.60;;;;;;;16.90;100.00;101521.84;10476130;28;20052;-79
2022/08/01 01:47:36;;;;;;;10.95;6.00;;;;;;;16.92;100.00;101529.94;10476654;28;20029;-78
2022/08/01 01:52:36;;;;;;;10.05;5.93;;;;;;;16.92;100.00;101527.16;10457840;28;20041;-78
2022/08/01 01:57:41;;;;;;;10.05;5.50;;;;;;;16.82;100.00;101521.59;10440102;28;20041;-79
2022/08/01 02:02:42;;;;;;;10.10;5.78;;;;;;;16.85;100.00;101530.22;10441610;28;20041;-78
2022/08/01 02:07:42;;;;;;;10.30;5.97;;;;;;;16.72;100.00;101519.63;10459779;28;20120;-77
2022/08/01 02:12:45;;;;;;;10.93;4.72;;;;;;;16.77;100.00;101533.53;10425688;28;20044;-78
2022/08/01 02:17:48;;;;;;;8.02;4.85;;;;;;;16.79;100.00;101547.19;10456650;28;20400;-78
2022/08/01 02:23:11;;;;;;;14.05;5.80;;;;;;;16.79;100.00;101548.00;10440265;28;20048;-78
2022/08/01 02:28:17;;;;;;;9.93;5.18;;;;;;;16.77;100.00;101549.41;10440981;28;20051;-78
2022/08/01 02:33:19;;;;;;;8.73;5.32;;;;;;;16.72;100.00;101544.66;10455792;28;20040;-79
2022/08/01 02:38:21;;;;;;;14.25;5.80;;;;;;;16.69;100.00;101543.28;10456309;28;20025;-78
2022/08/01 02:43:23;;;;;;;13.52;5.53;;;;;;;16.70;100.00;101555.22;10455896;28;20033;-78
2022/08/01 02:48:25;;;;;;;7.40;4.65;;;;;;;16.71;100.00;101563.28;10439444;28;20105;-78
2022/08/01 02:53:26;;;;;;;10.10;4.78;;;;;;;16.75;100.00;101574.69;10456308;28;20041;-77
2022/08/01 02:58:26;;;;;;;9.77;4.10;;;;;;;16.62;100.00;101564.13;10455978;28;20037;-80
2022/08/01 03:03:27;;;;;;;12.85;5.10;;;;;;;16.67;100.00;101578.88;10438912;28;20072;-79
2022/08/01 03:08:28;;;;;;;10.00;5.30;;;;;;;16.57;100.00;101567.75;10454501;28;20439;-79
2022/08/01 03:13:29;;;;;;;15.02;4.38;;;;;;;16.55;100.00;101569.97;10439245;28;20037;-79
2022/08/01 03:18:29;;;;;;;9.65;4.50;;;;;;;16.54;100.00;101585.00;10454929;28;20033;-80
2022/08/01 03:23:30;;;;;;;13.70;4.47;;;;;;;16.55;100.00;101592.19;10455505;28;20029;-80
2022/08/01 03:28:31;;;;;;;12.82;4.80;;;;;;;16.56;100.00;101602.22;10438843;28;20080;-77
2022/08/01 03:33:31;;;;;;;11.55;4.10;;;;;;;16.51;100.00;101594.69;10453916;28;20044;-79
2022/08/01 03:38:32;;;;;;;14.48;3.88;;;;;;;16.50;100.00;101600.56;10487880;28;20079;-77
2022/08/01 03:43:36;;;;;;;15.55;4.30;;;;;;;16.53;100.00;101597.19;10454075;28;20081;-79
2022/08/01 03:48:39;;;;;;;10.55;4.40;;;;;;;16.40;100.00;101598.59;10436913;28;20041;-80
2022/08/01 03:53:40;;;;;;;16.75;4.90;;;;;;;16.40;100.00;101606.09;10437949;28;20047;-79
2022/08/01 03:58:40;;;;;;;11.18;4.60;;;;;;;16.40;100.00;101612.47;10442578;28;20029;-79
2022/08/01 04:03:42;;;;;;;13.32;5.05;;;;;;;16.42;100.00;101598.31;10446168;28;20044;-79
2022/08/01 04:08:42;;;;;;;15.65;6.00;;;;;;;16.37;100.00;101601.06;10462489;28;20107;-79
2022/08/01 04:13:43;;;;;;;15.82;5.45;;;;;;;16.31;100.00;101603.88;10445073;28;20077;-80
2022/08/01 04:18:43;;;;;;;17.73;6.35;;;;;;;16.16;100.00;101595.47;10460871;28;20029;-80
2022/08/01 04:23:43;;;;;;;19.55;5.00;;;;;;;15.98;100.00;101607.09;10442966;28;20568;-79
2022/08/01 04:28:44;;;;;;;12.15;4.57;;;;;;;15.84;100.00;101604.84;10426862;28;20509;-78
2022/08/01 04:33:47;;;;;;;15.15;4.90;;;;;;;15.79;100.00;101618.69;10444808;28;20131;-71
2022/08/01 04:38:48;;;;;;;16.63;4.88;;;;;;;15.74;100.00;101627.00;10429182;28;20114;-79
2022/08/01 04:43:50;;;;;;;14.70;4.47;;;;;;;15.74;100.00;101632.56;10444897;28;20100;-79
2022/08/01 04:48:51;;;;;;;14.15;4.25;;;;;;;15.79;100.00;101649.22;10443280;28;20095;-76
2022/08/01 04:53:52;;;;;;;14.43;4.32;;;;;;;15.74;100.00;101654.78;10459893;28;20045;-78
2022/08/01 04:59:39;;;;;;;23.15;5.32;;;;;;;15.71;100.00;101641.41;10459074;28;20025;-70
2022/08/01 05:04:12;;;;;;;15.75;3.83;;;;;;;15.83;100.00;101650.34;10445895;28;20036;-78
2022/08/01 05:09:13;;;;;;;18.00;3.92;;;;;;;15.94;100.00;101663.19;10442967;28;20033;-77
2022/08/01 05:14:13;;;;;;;14.75;4.03;;;;;;;16.03;100.00;101662.66;10441854;28;20073;-78
2022/08/01 05:19:14;;;;;;;22.23;3.80;;;;;;;16.09;100.00;101664.38;10459099;28;20047;-77
2022/08/01 05:24:14;;;;;;;19.52;3.75;;;;;;;16.09;100.00;101654.06;10459880;28;20037;-78
2022/08/01 05:29:15;;;;;;;16.98;4.05;;;;;;;16.22;100.00;101674.13;10460506;28;20041;-79
2022/08/01 05:34:16;;;;;;;16.95;3.85;;;;;;;16.32;100.00;101663.88;10459922;28;20395;-78
2022/08/01 05:39:16;;;;;;;24.70;4.07;;;;;;;16.44;100.00;101665.56;10442500;28;20040;-77
2022/08/01 05:44:17;;;;;;;15.32;3.70;;;;;;;16.50;100.00;101673.66;10431703;28;20054;-78
2022/08/01 05:49:17;;;;;;;17.08;3.88;;;;;;;16.40;100.00;101662.50;10426011;28;20096;-79
2022/08/01 05:54:18;;;;;;;14.27;4.15;;;;;;;16.52;100.00;101665.88;10491157;28;20455;-79
2022/08/01 05:59:18;;;;;;;20.10;3.92;;;;;;;16.58;100.00;101675.06;10459678;28;20029;-78
2022/08/01 06:04:19;;;;;;;20.08;4.15;;;;;;;16.68;100.00;101675.06;10457796;28;20043;-78
2022/08/01 06:09:19;;;;;;;19.23;3.78;;;;;;;16.70;100.00;101686.75;10491413;28;20041;-79
2022/08/01 06:14:20;;;;;;;21.02;4.40;;;;;;;16.73;100.00;101671.47;10457145;28;20064;-77
2022/08/01 06:19:20;;;;;;;19.45;3.95;;;;;;;16.73;100.00;101671.47;10472034;28;20496;-79
2022/08/01 06:24:22;;;;;;;19.23;4.20;;;;;;;16.77;100.00;101677.31;10472730;28;20363;-78
2022/08/01 06:29:23;;;;;;;20.20;4.15;;;;;;;16.81;100.00;101689.59;10455802;28;20056;-80
2022/08/01 06:34:23;;;;;;;21.20;3.65;;;;;;;16.83;100.00;101704.03;10459039;28;20393;-79
2022/08/01 06:39:24;;;;;;;17.50;4.15;;;;;;;16.79;100.00;101702.91;10457409;28;20573;-80
2022/08/01 06:44:24;;;;;;;12.85;3.88;;;;;;;16.81;100.00;101711.81;10457457;28;20029;-80
2022/08/01 06:49:25;;;;;;;12.38;3.25;;;;;;;16.88;100.00;101707.66;10457820;28;20037;-79
2022/08/01 06:54:25;;;;;;;16.90;3.15;;;;;;;17.07;100.00;101716.28;10455317;28;20493;-80
2022/08/01 06:59:26;;;;;;;16.75;3.13;;;;;;;16.99;100.00;101716.00;10431019;28;20053;-80
2022/08/01 07:04:26;;;;;;;10.48;2.60;;;;;;;17.00;100.00;101715.72;10433348;28;20049;-81
2022/08/01 07:09:27;;;;;;;12.10;2.70;;;;;;;16.99;100.00;101713.22;10433042;28;20037;-81
2022/08/01 07:14:27;;;;;;;21.35;3.83;;;;;;;16.91;100.00;101722.97;10417729;28;20117;-80
2022/08/01 07:19:28;;;;;;;14.55;3.22;;;;;;;16.64;100.00;101685.06;10390189;28;20046;-71
2022/08/01 07:24:29;;;;;;;16.67;3.65;;;;;;;16.91;100.00;101734.91;10397321;28;21220;-80
2022/08/01 07:29:29;;;;;;;15.45;3.35;;;;;;;16.82;100.00;101725.44;10414206;28;20040;-81
2022/08/01 07:34:29;;;;;;;15.23;3.05;;;;;;;16.86;100.00;101736.84;10413552;28;20038;-80
2022/08/01 07:39:30;;;;;;;15.32;2.33;;;;;;;16.96;100.00;101736.88;10451582;28;20037;-81
2022/08/01 07:44:30;;;;;;;11.60;2.63;;;;;;;17.06;100.00;101753.56;10453611;28;20083;-81
2022/08/01 07:49:31;;;;;;;15.27;2.80;;;;;;;17.18;100.00;101744.09;10471347;28;20033;-80
2022/08/01 07:54:32;;;;;;;14.63;2.67;;;;;;;17.44;100.00;101759.69;10454631;28;20060;-80
2022/08/01 07:59:32;;;;;;;12.55;2.35;;;;;;;17.57;100.00;101763.03;10456279;28;20765;-81
2022/08/01 08:04:33;;;;;;;17.60;2.38;;;;;;;17.67;100.00;101763.88;10457066;28;20120;-80
2022/08/01 08:09:33;;;;;;;12.80;3.28;;;;;;;17.91;100.00;101764.13;10456104;28;20104;-78
2022/08/01 08:14:34;;;;;;;16.52;2.90;;;;;;;18.06;100.00;101762.41;10456130;28;20048;-77
2022/08/01 08:19:36;;;;;;;18.48;2.00;;;;;;;17.63;100.00;101703.44;10455287;28;20056;-77
2022/08/01 08:24:37;;;;;;;11.40;1.80;;;;;;;18.38;100.00;101777.91;10487480;28;20428;-79
2022/08/01 08:29:37;;;;;;;11.35;2.38;;;;;;;18.51;100.00;101766.13;10487544;28;20100;-79
2022/08/01 08:34:38;;;;;;;17.70;3.42;;;;;;;18.52;100.00;101767.78;10454818;28;20436;-79
2022/08/01 08:39:38;;;;;;;18.00;2.78;;;;;;;18.61;100.00;101766.09;10487915;28;20282;-80
2022/08/01 08:44:42;;;;;;;9.40;1.90;;;;;;;18.57;100.00;101776.16;10460587;28;20033;-76
2022/08/01 08:49:43;;;;;;;7.20;1.70;;;;;;;18.76;100.00;101777.16;10461974;28;20063;-79
2022/08/01 08:54:44;;;;;;;11.27;3.08;;;;;;;19.06;100.00;101766.09;10478118;28;20139;-76
2022/08/01 08:59:44;;;;;;;10.50;1.70;;;;;;;19.15;100.00;101769.97;10459443;28;20112;-75
2022/08/01 09:04:46;;;;;;;8.90;1.50;;;;;;;19.28;100.00;101780.44;10448335;28;20033;-75
2022/08/01 09:09:48;;;;;;;7.05;1.50;;;;;;;19.23;100.00;101783.31;10460747;28;20124;-76
2022/08/01 09:14:52;;;;;;;6.28;1.38;;;;;;;19.05;100.00;101801.56;10462425;28;20043;-76
2022/08/01 09:19:54;;;;;;;11.95;2.13;;;;;;;19.46;100.00;101798.47;10462414;28;20044;-76
2022/08/01 09:25:08;;;;;;;7.85;2.20;;;;;;;19.34;100.00;101804.41;10461619;28;20053;-78
2022/08/01 09:30:12;;;;;;;8.30;1.40;;;;;;;19.56;100.00;101820.72;10462163;28;20033;-76
2022/08/01 09:35:31;;;;;;;8.82;2.03;;;;;;;19.71;100.00;101800.22;10461716;28;20102;-77
2022/08/01 09:40:50;;;;;;;8.32;1.67;;;;;;;19.91;100.00;101813.19;10443384;28;20072;-75
2022/08/01 09:45:51;;;;;;;11.55;1.88;;;;;;;20.16;100.00;101817.66;10460847;28;20111;-77
2022/08/01 09:50:52;;;;;;;8.93;1.50;;;;;;;20.32;100.00;101809.94;10460764;28;20110;-75
2022/08/01 09:55:53;;;;;;;8.45;1.50;;;;;;;20.45;100.00;101813.16;10442350;28;20024;-76
2022/08/01 10:00:59;;;;;;;8.13;1.13;;;;;;;20.77;100.00;101809.66;10442194;28;20029;-78
2022/08/01 10:06:00;;;;;;;5.53;1.25;;;;;;;21.01;97.64;101806.00;10460394;28;20044;-80
2022/08/01 10:11:08;;;;;;;9.55;2.15;;;;;;;21.29;100.00;101823.75;10445656;28;20052;-77
2022/08/01 10:16:08;;;;;;;7.60;1.30;;;;;;;21.19;99.98;101824.75;10458143;28;20033;-77
2022/08/01 10:21:08;;;;;;;8.85;1.35;;;;;;;21.27;93.97;101817.63;10458516;28;20041;-78
2022/08/01 10:26:10;;;;;;;8.75;1.40;;;;;;;21.35;94.25;101803.78;10425391;28;20068;-78
2022/08/01 10:31:10;;;;;;;8.55;1.80;;;;;;;21.66;93.52;101813.66;10459111;28;20052;-76
2022/08/01 10:36:11;;;;;;;6.28;1.65;;;;;;;21.66;90.32;101768.81;10441145;28;20025;-76
2022/08/01 10:41:11;;;;;;;16.35;3.15;;;;;;;21.72;89.82;101812.44;10459655;28;20048;-77
2022/08/01 10:46:12;;;;;;;6.88;1.30;;;;;;;21.91;89.03;101817.97;10440536;28;20505;-77
2022/08/01 10:51:13;;;;;;;4.75;1.08;;;;;;;21.51;89.04;101818.38;10458616;28;20029;-77
2022/08/01 10:56:13;;;;;;;6.28;1.83;;;;;;;21.79;88.82;101810.06;10457524;28;20029;-79
2022/08/01 11:01:25;;;;;;;7.32;2.90;;;;;;;22.56;86.73;101815.03;10458178;28;20037;-78
2022/08/01 11:06:32;;;;;;;11.07;2.55;;;;;;;22.82;80.98;101788.38;10456602;28;20085;-77
2022/08/01 11:11:32;;;;;;;9.63;1.50;;;;;;;22.36;85.81;101813.47;10456208;28;20037;-77
2022/08/01 11:16:36;;;;;;;13.07;2.03;;;;;;;22.25;83.93;101803.63;10439448;28;20033;-75
2022/08/01 11:21:52;;;;;;;7.72;2.17;;;;;;;22.58;84.03;101825.97;10456359;28;20044;-77
2022/08/01 11:27:25;;;;;;;6.63;2.07;;;;;;;21.90;85.88;101836.78;10455455;28;20120;-77
2022/08/01 11:32:26;;;;;;;7.22;1.17;;;;;;;21.47;87.86;101836.94;10439248;28;20033;-78
2022/08/01 11:37:27;;;;;;;8.18;1.48;;;;;;;21.79;85.20;101834.44;10433413;28;20693;-79
2022/08/01 11:42:27;;;;;;;8.10;1.38;;;;;;;21.95;84.06;101833.88;10433544;28;20496;-80
2022/08/01 11:47:55;;;;;;;9.80;1.17;;;;;;;21.96;82.55;101818.72;10432807;28;20042;-77
2022/08/01 11:53:06;;;;;;;8.55;1.30;;;;;;;21.63;79.99;101820.72;10418558;28;20045;-81
2022/08/01 11:58:07;;;;;;;13.75;1.67;;;;;;;22.49;78.92;101810.97;10412731;28;20037;-78
2022/08/01 12:03:08;;;;;;;8.70;1.35;;;;;;;22.59;76.66;101819.19;10412787;28;20038;-81
2022/08/01 12:08:09;;;;;;;7.82;1.45;;;;;;;22.03;82.13;101839.91;10412029;28;20061;-77
2022/08/01 12:13:09;;;;;;;10.20;1.65;;;;;;;22.17;80.82;101826.75;10426059;28;20037;-78
2022/08/01 12:18:10;;;;;;;9.48;1.42;;;;;;;22.12;80.94;101827.69;10430894;28;20025;-82
2022/08/01 12:23:15;;;;;;;11.10;1.48;;;;;;;22.72;76.92;101812.75;10460891;28;20037;-80
2022/08/01 12:28:17;;;;;;;5.25;1.08;;;;;;;23.16;75.36;101816.00;10462869;28;20059;-80
2022/08/01 12:33:19;;;;;;;6.18;1.23;;;;;;;23.57;71.93;101798.94;10461967;28;20044;-77
2022/08/01 12:38:22;;;;;;;5.55;1.50;;;;;;;23.21;72.93;101812.22;10462570;28;20049;-77
2022/08/01 12:43:24;;;;;;;6.70;2.03;;;;;;;23.35;74.18;101815.81;10456476;28;20504;-77
2022/08/01 12:48:25;;;;;;;5.85;0.98;;;;;;;23.16;71.65;101811.19;10415106;28;20116;-77
2022/08/01 12:53:25;;;;;;;6.85;1.63;;;;;;;23.72;72.04;101811.78;10437278;28;20092;-80
2022/08/01 12:58:33;;;;;;;5.53;1.10;;;;;;;24.13;69.28;101804.25;10441778;28;20163;-77
2022/08/01 13:03:33;;;;;;;14.82;1.42;;;;;;;25.02;65.81;101779.66;10434712;28;20033;-81
2022/08/01 13:08:34;;;;;;;8.52;1.40;;;;;;;24.50;65.12;101779.59;10442253;28;20064;-77
2022/08/01 13:13:53;;;;;;;8.88;1.40;;;;;;;25.15;66.23;101787.09;10457865;28;20045;-79
2022/08/01 13:18:55;;;;;;;9.77;1.55;;;;;;;25.43;63.85;101788.78;10462100;28;20044;-78
2022/08/01 13:24:10;;;;;;;7.20;1.33;;;;;;;25.42;64.72;101796.41;10462198;28;20059;-81
2022/08/01 13:29:13;;;;;;;9.70;1.60;;;;;;;25.75;60.10;101778.91;10458722;28;20416;-81
2022/08/01 13:34:13;;;;;;;7.25;1.30;;;;;;;26.17;59.99;101784.78;10460680;28;20051;-83
2022/08/01 13:44:33;;;;;;;8.95;1.40;;;;;;;26.31;59.51;101788.19;10449439;28;20501;-79
2022/08/01 13:49:34;;;;;;;5.90;1.38;;;;;;;25.31;58.88;101792.28;10437043;28;20049;-78
2022/08/01 13:54:34;;;;;;;5.90;1.38;;;;;;;25.22;60.74;101791.44;10430798;28;20064;-81
2022/08/01 13:59:35;;;;;;;6.43;0.90;;;;;;;25.21;60.59;101790.63;10435473;28;20071;-79
2022/08/01 14:04:35;;;;;;;9.80;1.23;;;;;;;25.70;59.99;101787.56;10441358;28;20109;-78
2022/08/01 14:09:37;;;;;;;6.45;1.50;;;;;;;26.44;56.61;101765.69;10439217;28;20040;-78
2022/08/01 14:14:38;;;;;;;5.15;1.70;;;;;;;26.43;55.65;101769.69;10440001;28;20045;-77
2022/08/01 14:19:38;;;;;;;7.50;1.10;;;;;;;25.99;55.36;101766.28;10443885;28;20033;-79
2022/08/01 14:24:39;;;;;;;6.82;1.20;;;;;;;25.93;56.24;101783.38;10456497;28;20059;-80
2022/08/01 14:29:40;;;;;;;7.30;1.25;;;;;;;25.80;58.18;101773.13;10460001;28;20028;-82
2022/08/01 14:34:40;;;;;;;9.10;1.52;;;;;;;25.76;57.49;101770.13;10459425;28;20037;-83
2022/08/01 14:39:43;;;;;;;4.78;0.90;;;;;;;25.70;55.31;101759.38;10456945;28;20037;-71
2022/08/01 14:44:44;;;;;;;7.07;1.17;;;;;;;25.57;55.68;101756.41;10458581;28;20270;-81
2022/08/01 14:49:44;;;;;;;6.82;1.30;;;;;;;25.34;56.89;101760.59;10456704;28;20037;-85
2022/08/01 14:54:45;;;;;;;5.90;1.55;;;;;;;25.16;57.45;101760.59;10458585;28;20049;-71
2022/08/01 14:59:46;;;;;;;11.65;1.38;;;;;;;25.46;56.91;101777.66;10459153;28;20041;-82
2022/08/01 15:04:46;;;;;;;8.27;1.60;;;;;;;24.51;58.53;101792.50;10458737;28;20048;-79
2022/08/01 15:09:47;;;;;;;7.78;1.15;;;;;;;24.46;60.11;101789.81;10457538;28;20045;-82
2022/08/01 15:14:47;;;;;;;7.13;2.10;;;;;;;25.07;58.31;101785.09;10457642;28;20095;-79
2022/08/01 15:19:49;;;;;;;11.43;3.00;;;;;;;25.97;57.22;101780.72;10457709;28;20343;-81
2022/08/01 15:24:50;;;;;;;5.55;1.52;;;;;;;26.37;55.43;101772.72;10457373;28;20250;-82
2022/08/01 15:29:50;;;;;;;7.97;2.38;;;;;;;26.68;55.04;101759.44;10457583;28;20105;-82
2022/08/01 15:34:51;;;;;;;5.57;1.17;;;;;;;27.24;53.53;101756.34;10455929;28;20293;-79
2022/08/01 15:39:52;;;;;;;7.50;1.52;;;;;;;26.90;53.11;101761.09;10456379;28;20044;-84
2022/08/01 15:44:52;;;;;;;8.65;1.50;;;;;;;27.01;53.03;101759.50;10457062;28;20048;-81
2022/08/01 15:49:53;;;;;;;7.55;1.38;;;;;;;26.53;53.88;101763.66;10454800;28;20045;-80
2022/08/01 15:54:53;;;;;;;8.55;2.53;;;;;;;27.21;53.48;101765.50;10428687;28;20103;-80
2022/08/01 15:59:53;;;;;;;7.65;1.20;;;;;;;26.93;51.06;101754.75;10426035;28;20050;-80
2022/08/01 16:04:54;;;;;;;5.50;1.40;;;;;;;26.96;51.85;101754.06;10443773;28;20036;-80
2022/08/01 16:09:54;;;;;;;8.65;1.60;;;;;;;26.70;51.39;101769.22;10439037;28;20033;-79
2022/08/01 16:14:55;;;;;;;4.63;1.67;;;;;;;26.56;51.48;101774.25;10442643;28;20067;-82
2022/08/01 16:19:56;;;;;;;7.90;1.27;;;;;;;25.72;53.35;101776.78;10441263;28;20373;-80
2022/08/01 16:24:56;;;;;;;6.53;2.13;;;;;;;24.37;56.20;101792.56;10438749;28;20037;-78
2022/08/01 16:29:57;;;;;;;7.93;1.48;;;;;;;23.23;58.83;101805.13;10442889;28;20385;-81
2022/08/01 16:34:57;;;;;;;4.22;1.33;;;;;;;22.26;60.61;101816.50;10441843;28;20572;-80
2022/08/01 16:39:58;;;;;;;7.63;1.20;;;;;;;21.43;63.83;101830.28;10441523;28;20861;-80
2022/08/01 16:44:58;;;;;;;6.90;2.08;;;;;;;20.88;64.42;101835.56;10444428;28;20052;-79
2022/08/01 16:49:59;;;;;;;10.95;2.42;;;;;;;20.34;68.68;101858.03;10444784;28;20029;-75
2022/08/01 16:54:59;;;;;;;9.25;1.10;;;;;;;20.10;68.16;101840.38;10444963;28;20052;-81
2022/08/01 16:59:59;;;;;;;5.05;1.50;;;;;;;19.79;71.13;101840.69;10444559;28;20037;-83
2022/08/01 17:05:00;;;;;;;7.80;2.03;;;;;;;19.73;71.23;101855.81;10443927;28;20044;-80
2022/08/01 17:10:01;;;;;;;8.75;1.40;;;;;;;19.28;71.86;101853.03;10439206;28;20045;-79
2022/08/01 17:15:01;;;;;;;6.68;1.30;;;;;;;19.13;74.79;101867.94;10440132;28;20055;-80
2022/08/01 17:20:02;;;;;;;8.93;1.50;;;;;;;18.97;72.76;101855.19;10440604;28;20056;-81
2022/08/01 17:25:03;;;;;;;9.32;1.92;;;;;;;18.85;74.46;101855.53;10441642;28;20037;-81
2022/08/01 17:30:05;;;;;;;10.55;1.92;;;;;;;18.69;74.56;101840.78;10442839;28;20029;-80
2022/08/01 17:35:05;;;;;;;6.30;2.25;;;;;;;18.50;75.26;101836.94;10437802;28;20049;-79
2022/08/01 17:40:06;;;;;;;6.28;2.20;;;;;;;18.49;77.19;101852.03;10460322;28;20025;-81
2022/08/01 17:45:08;;;;;;;8.27;2.30;;;;;;;18.39;77.36;101852.06;10458242;28;20045;-79
2022/08/01 17:50:09;;;;;;;12.40;2.95;;;;;;;18.24;76.01;101856.56;10459921;28;20040;-81
2022/08/01 17:55:10;;;;;;;9.63;2.30;;;;;;;18.18;79.04;101860.47;10451002;28;20044;-81
2022/08/01 18:00:11;;;;;;;9.63;2.67;;;;;;;18.10;78.79;101867.44;10440614;28;20076;-80
2022/08/01 18:05:12;;;;;;;4.60;1.80;;;;;;;18.02;82.02;101875.53;10450153;28;20038;-80
2022/08/01 18:10:12;;;;;;;7.57;1.60;;;;;;;17.90;82.64;101878.59;10436511;28;20044;-79
2022/08/01 18:15:12;;;;;;;6.07;2.47;;;;;;;17.77;81.66;101879.97;10417020;28;20084;-71
2022/08/01 18:20:13;;;;;;;8.50;2.30;;;;;;;17.70;82.98;101885.00;10457641;28;20033;-80
2022/08/01 18:25:13;;;;;;;7.07;1.70;;;;;;;17.57;83.53;101880.81;10457149;28;20033;-82
2022/08/01 18:30:14;;;;;;;8.52;2.25;;;;;;;17.33;87.32;101875.75;10450656;28;20037;-80
2022/08/01 18:35:14;;;;;;;7.88;2.55;;;;;;;17.25;88.39;101889.38;10454607;28;20033;-81
2022/08/01 18:40:15;;;;;;;5.95;2.00;;;;;;;17.17;88.19;101878.78;10457922;28;20144;-79
2022/08/01 18:45:16;;;;;;;7.07;1.58;;;;;;;17.05;89.89;101890.16;10457469;28;20057;-81
2022/08/01 18:50:17;;;;;;;6.50;1.60;;;;;;;16.92;88.34;101888.72;10456796;28;20089;-80
2022/08/01 18:55:18;;;;;;;8.73;2.10;;;;;;;16.75;89.83;101892.53;10458001;28;20056;-80
2022/08/01 19:00:18;;;;;;;8.07;1.77;;;;;;;16.58;93.46;101894.69;10455690;28;20041;-80
2022/08/01 19:05:18;;;;;;;8.32;1.83;;;;;;;16.39;96.34;101904.56;10438236;28;20497;-80
2022/08/01 19:10:19;;;;;;;10.15;1.88;;;;;;;16.13;100.00;101905.22;10454751;28;20048;-73
2022/08/01 19:15:19;;;;;;;5.75;1.45;;;;;;;15.88;100.00;101896.72;10438420;28;20074;-80
2022/08/01 19:20:20;;;;;;;8.27;2.00;;;;;;;15.70;100.00;101898.72;10429449;28;20044;-79
2022/08/01 19:25:21;;;;;;;9.48;2.53;;;;;;;15.44;100.00;101905.13;10455040;28;20037;-80
2022/08/01 19:30:22;;;;;;;7.53;2.22;;;;;;;15.26;100.00;101909.13;10454994;28;20485;-79
2022/08/01 19:35:24;;;;;;;7.15;2.17;;;;;;;15.08;100.00;101911.13;10453171;28;20043;-79
2022/08/01 19:40:24;;;;;;;5.32;2.33;;;;;;;14.89;100.00;101912.56;10453819;28;20339;-78
2022/08/01 19:45:28;;;;;;;6.47;3.05;;;;;;;14.80;100.00;101916.88;10452918;28;20033;-80
2022/08/01 19:50:28;;;;;;;10.25;2.40;;;;;;;14.68;100.00;101915.06;10436487;28;20555;-78
2022/08/01 19:55:29;;;;;;;9.60;2.10;;;;;;;14.54;100.00;101930.38;10437308;28;20464;-82
2022/08/01 20:00:30;;;;;;;4.63;2.00;;;;;;;14.40;100.00;101921.56;10436216;28;20059;-79
2022/08/01 20:05:30;;;;;;;16.88;2.42;;;;;;;14.28;100.00;101935.53;10454318;28;20425;-80
2022/08/01 20:10:31;;;;;;;6.28;2.00;;;;;;;14.18;100.00;101937.28;10453499;28;20056;-80
2022/08/01 20:15:32;;;;;;;7.43;1.83;;;;;;;14.05;100.00;101933.75;10436242;28;20048;-79
2022/08/01 20:20:32;;;;;;;10.65;2.78;;;;;;;13.93;100.00;101925.56;10453926;28;20063;-68
2022/08/01 20:25:35;;;;;;;5.68;2.15;;;;;;;13.70;100.00;101903.56;10466293;28;20049;-79
2022/08/01 20:30:37;;;;;;;12.25;2.17;;;;;;;13.75;100.00;101923.03;10447718;28;20037;-78
2022/08/01 20:35:37;;;;;;;8.90;2.20;;;;;;;13.68;100.00;101922.34;10417769;28;20033;-80
2022/08/01 20:40:38;;;;;;;8.30;2.30;;;;;;;13.59;100.00;101923.84;10457778;28;20037;-79
2022/08/01 20:45:40;;;;;;;7.78;3.70;;;;;;;13.49;100.00;101925.31;10458640;28;20059;-78
2022/08/01 20:56:32;;;;;;;15.32;3.65;;;;;;;13.34;100.00;101933.34;10448125;28;20067;-78
2022/08/01 21:01:39;;;;;;;9.90;2.30;;;;;;;13.26;100.00;101936.47;10449397;28;20037;-80
2022/08/01 21:06:53;;;;;;;9.20;3.55;;;;;;;13.18;100.00;101928.56;10458194;28;20116;-79
2022/08/01 21:12:01;;;;;;;7.57;3.10;;;;;;;13.09;100.00;101923.41;10460513;28;20049;-79
2022/08/01 21:17:04;;;;;;;7.18;3.20;;;;;;;12.99;100.00;101931.50;10458592;28;20060;-79
2022/08/01 21:22:14;;;;;;;8.25;2.88;;;;;;;12.88;100.00;101919.41;10442551;28;20044;-79
2022/08/01 21:27:16;;;;;;;12.52;3.28;;;;;;;12.84;100.00;101911.84;10440259;28;20029;-80
2022/08/01 21:32:17;;;;;;;12.30;3.33;;;;;;;12.72;100.00;101909.94;10457370;28;20033;-79
2022/08/01 21:37:17;;;;;;;5.90;2.40;;;;;;;12.71;100.00;101919.31;10415903;28;20025;-80
2022/08/01 21:42:18;;;;;;;8.70;3.22;;;;;;;12.64;100.00;101926.06;10414788;28;20059;-79
2022/08/01 21:47:18;;;;;;;8.68;3.38;;;;;;;12.53;100.00;101922.22;10425945;28;20033;-79
2022/08/01 21:52:21;;;;;;;7.40;2.85;;;;;;;12.53;100.00;101938.81;10455408;28;20327;-81
2022/08/01 21:57:43;;;;;;;15.27;3.40;;;;;;;12.49;100.00;101951.41;10439341;28;20063;-79
2022/08/01 22:03:07;;;;;;;10.85;3.67;;;;;;;12.37;100.00;101954.19;10440917;28;20122;-80
2022/08/01 22:08:09;;;;;;;10.90;3.47;;;;;;;12.29;100.00;101960.06;10456462;28;20346;-79
2022/08/01 22:13:10;;;;;;;9.30;4.15;;;;;;;12.20;100.00;101951.28;10421276;28;20045;-80
2022/08/01 22:18:11;;;;;;;6.55;3.38;;;;;;;12.11;100.00;101955.47;10457282;28;20657;-79
2022/08/01 22:23:13;;;;;;;8.55;3.63;;;;;;;12.02;100.00;101954.16;10454599;28;20048;-79
2022/08/01 22:28:16;;;;;;;10.52;3.10;;;;;;;11.94;100.00;101946.22;10457068;28;20060;-80
2022/08/01 22:33:17;;;;;;;14.38;4.47;;;;;;;11.87;100.00;101941.63;10455654;28;20119;-80
2022/08/01 22:38:22;;;;;;;16.73;3.92;;;;;;;11.89;100.00;101938.66;10429918;28;20726;-80
2022/08/01 22:43:29;;;;;;;15.60;4.13;;;;;;;11.89;100.00;101936.72;10439074;28;20033;-81
2022/08/01 22:49:06;;;;;;;9.07;4.00;;;;;;;11.87;100.00;101930.56;10456242;28;20048;-79
2022/08/01 22:54:10;;;;;;;15.93;4.40;;;;;;;11.82;100.00;101932.34;10451811;28;20067;-79
2022/08/01 22:59:16;;;;;;;9.63;3.70;;;;;;;11.69;100.00;101919.63;10454920;28;20075;-79
2022/08/01 23:04:33;;;;;;;16.35;4.55;;;;;;;11.65;100.00;101915.66;10455332;28;20041;-80